createdAt,value
2017-08-20T00:00:23.646Z,0
2017-08-20T00:01:33.944Z,0
2017-08-20T00:02:45.869Z,0
2017-08-20T00:04:01.270Z,0
2017-08-20T00:05:31.758Z,0
2017-08-20T00:06:41.446Z,0
2017-08-20T00:07:51.742Z,0
2017-08-20T00:09:02.035Z,0
2017-08-20T00:10:12.310Z,0
2017-08-20T00:11:22.286Z,0
2017-08-20T00:12:32.573Z,0
2017-08-20T00:13:42.864Z,0
2017-08-20T00:14:53.137Z,0
2017-08-20T00:16:03.429Z,0
2017-08-20T00:17:16.221Z,0
2017-08-20T00:18:26.510Z,0
2017-08-20T00:19:36.834Z,0
2017-08-20T00:20:47.126Z,0
2017-08-20T00:21:57.419Z,0
2017-08-20T00:23:07.409Z,0
2017-08-20T00:24:17.696Z,0
2017-08-20T00:25:27.970Z,0
2017-08-20T00:26:38.278Z,0
2017-08-20T00:27:49.736Z,0
2017-08-20T00:28:59.743Z,0
2017-08-20T00:30:09.722Z,0
2017-08-20T00:31:20.025Z,0
2017-08-20T00:32:29.996Z,0
2017-08-20T00:33:39.976Z,0
2017-08-20T00:34:49.711Z,0
2017-08-20T00:35:59.688Z,0
2017-08-20T00:37:09.701Z,0
2017-08-20T00:38:19.997Z,0
2017-08-20T00:39:30.270Z,0
2017-08-20T00:40:39.986Z,0
2017-08-20T00:41:50.268Z,0
2017-08-20T00:43:00.542Z,0
2017-08-20T00:44:10.218Z,0
2017-08-20T00:45:20.515Z,0
2017-08-20T00:46:30.797Z,0
2017-08-20T00:47:41.062Z,0
2017-08-20T00:48:51.354Z,0
2017-08-20T00:50:01.643Z,0
2017-08-20T00:51:11.596Z,0
2017-08-20T00:52:22.663Z,0
2017-08-20T00:53:32.342Z,0
2017-08-20T00:54:42.616Z,0
2017-08-20T00:55:52.904Z,0
2017-08-20T00:57:03.216Z,0
2017-08-20T00:58:13.247Z,0
2017-08-20T00:59:23.534Z,0
2017-08-20T01:00:33.829Z,0
2017-08-20T01:01:44.102Z,0
2017-08-20T01:02:55.480Z,0
2017-08-20T01:04:06.112Z,0
2017-08-20T01:05:16.081Z,0
2017-08-20T01:06:26.387Z,0
2017-08-20T01:07:36.699Z,0
2017-08-20T01:08:46.997Z,0
2017-08-20T01:09:57.331Z,0
2017-08-20T01:11:07.614Z,0
2017-08-20T01:12:17.594Z,0
2017-08-20T01:13:27.890Z,0
2017-08-20T01:14:38.193Z,0
2017-08-20T01:15:47.908Z,0
2017-08-20T01:16:58.201Z,0
2017-08-20T01:18:10.219Z,0
2017-08-20T01:19:22.008Z,0
2017-08-20T01:20:31.683Z,0
2017-08-20T01:21:42.043Z,0
2017-08-20T01:22:52.385Z,0
2017-08-20T01:24:02.691Z,0
2017-08-20T01:25:12.982Z,0
2017-08-20T01:26:23.292Z,0
2017-08-20T01:27:33.577Z,0
2017-08-20T01:28:43.850Z,0
2017-08-20T01:29:53.826Z,0
2017-08-20T01:31:03.792Z,0
2017-08-20T01:32:14.066Z,0
2017-08-20T01:33:24.081Z,0
2017-08-20T01:34:34.038Z,0
2017-08-20T01:35:44.001Z,0
2017-08-20T01:36:54.273Z,0
2017-08-20T01:38:04.578Z,0
2017-08-20T01:39:14.856Z,0
2017-08-20T01:40:25.131Z,0
2017-08-20T01:41:35.404Z,0
2017-08-20T01:42:45.700Z,0
2017-08-20T01:43:55.683Z,0
2017-08-20T01:45:05.664Z,0
2017-08-20T01:46:15.646Z,0
2017-08-20T01:47:25.932Z,0
2017-08-20T01:48:38.769Z,0
2017-08-20T01:49:49.052Z,0
2017-08-20T01:51:00.526Z,0
2017-08-20T01:52:10.209Z,0
2017-08-20T01:53:20.475Z,0
2017-08-20T01:54:30.759Z,0
2017-08-20T01:55:41.059Z,0
2017-08-20T01:56:51.337Z,0
2017-08-20T01:58:01.296Z,0
2017-08-20T01:59:11.577Z,0
2017-08-20T02:00:21.853Z,0
2017-08-20T02:01:31.818Z,0
2017-08-20T02:02:42.154Z,0
2017-08-20T02:03:52.433Z,0
2017-08-20T02:05:04.015Z,0
2017-08-20T02:06:14.287Z,0
2017-08-20T02:07:23.942Z,0
2017-08-20T02:08:33.299Z,0
2017-08-20T02:09:43.578Z,0
2017-08-20T02:10:59.007Z,0
2017-08-20T02:12:08.663Z,0
2017-08-20T02:13:18.929Z,0
2017-08-20T02:14:28.282Z,0
2017-08-20T02:15:38.559Z,0
2017-08-20T02:16:48.853Z,0
2017-08-20T02:17:58.815Z,0
2017-08-20T02:19:09.356Z,0
2017-08-20T02:20:19.640Z,0
2017-08-20T02:21:29.906Z,0
2017-08-20T02:22:40.181Z,0
2017-08-20T02:23:50.447Z,0
2017-08-20T02:25:00.720Z,0
2017-08-20T02:26:10.432Z,0
2017-08-20T02:27:20.726Z,0
2017-08-20T02:28:30.995Z,0
2017-08-20T02:29:41.264Z,0
2017-08-20T02:30:51.541Z,0
2017-08-20T02:32:01.819Z,0
2017-08-20T02:33:12.102Z,0
2017-08-20T02:34:22.397Z,0
2017-08-20T02:35:32.715Z,0
2017-08-20T02:36:42.696Z,0
2017-08-20T02:37:55.380Z,0
2017-08-20T02:39:05.336Z,0
2017-08-20T02:40:15.618Z,0
2017-08-20T02:41:25.886Z,0
2017-08-20T02:42:37.023Z,0
2017-08-20T02:43:46.752Z,0
2017-08-20T02:44:56.724Z,0
2017-08-20T02:46:07.007Z,0
2017-08-20T02:47:17.293Z,0
2017-08-20T02:48:27.579Z,0
2017-08-20T02:49:37.597Z,0
2017-08-20T02:50:47.249Z,0
2017-08-20T02:51:57.525Z,0
2017-08-20T02:53:07.505Z,0
2017-08-20T02:54:18.493Z,0
2017-08-20T02:55:28.807Z,0
2017-08-20T02:56:39.091Z,0
2017-08-20T02:57:49.365Z,0
2017-08-20T02:58:59.340Z,0
2017-08-20T03:00:09.617Z,0
2017-08-20T03:01:19.890Z,0
2017-08-20T03:33:22.057Z,0
2017-08-20T03:34:32.334Z,0
2017-08-20T03:35:42.296Z,0
2017-08-20T03:36:52.283Z,0
2017-08-20T03:38:03.834Z,0
2017-08-20T03:39:13.801Z,0
2017-08-20T03:40:24.081Z,0
2017-08-20T03:41:36.200Z,0
2017-08-20T03:42:46.175Z,0
2017-08-20T03:43:56.474Z,0
2017-08-20T03:45:06.432Z,0
2017-08-20T03:46:16.715Z,0
2017-08-20T03:47:26.679Z,0
2017-08-20T03:48:36.663Z,0
2017-08-20T03:49:46.937Z,0
2017-08-20T03:50:57.260Z,0
2017-08-20T03:52:07.539Z,0
2017-08-20T03:53:17.821Z,0
2017-08-20T03:54:27.813Z,0
2017-08-20T03:55:38.091Z,0
2017-08-20T03:56:48.415Z,0
2017-08-20T03:57:58.063Z,0
2017-08-20T03:59:08.382Z,0
2017-08-20T04:00:18.654Z,0
2017-08-20T04:01:28.925Z,0
2017-08-20T04:02:39.197Z,0
2017-08-20T04:03:50.017Z,0
2017-08-20T04:05:00.291Z,0
2017-08-20T04:06:10.579Z,0
2017-08-20T04:07:20.850Z,0
2017-08-20T04:08:30.825Z,0
2017-08-20T04:09:40.810Z,0
2017-08-20T04:10:51.084Z,0
2017-08-20T04:12:01.370Z,0
2017-08-20T04:13:11.343Z,0
2017-08-20T04:14:21.715Z,0
2017-08-20T04:15:31.689Z,0
2017-08-20T04:16:41.984Z,0
2017-08-20T04:17:52.260Z,0
2017-08-20T04:19:02.545Z,0
2017-08-20T04:20:12.522Z,5
2017-08-20T04:21:22.829Z,5
2017-08-20T04:22:33.847Z,5
2017-08-20T04:23:44.144Z,5
2017-08-20T04:24:54.410Z,5
2017-08-20T04:26:04.409Z,5
2017-08-20T04:27:14.684Z,5
2017-08-20T04:28:24.986Z,5
2017-08-20T04:29:34.943Z,5
2017-08-20T04:30:45.224Z,5
2017-08-20T04:31:55.505Z,10
2017-08-20T04:33:05.795Z,10
2017-08-20T04:34:16.089Z,10
2017-08-20T04:35:26.371Z,10
2017-08-20T04:36:36.658Z,10
2017-08-20T04:37:48.843Z,10
2017-08-20T04:38:59.124Z,10
2017-08-20T04:40:09.094Z,10
2017-08-20T04:41:19.073Z,10
2017-08-20T04:42:29.356Z,10
2017-08-20T04:43:39.363Z,10
2017-08-20T04:44:49.337Z,10
2017-08-20T04:45:59.346Z,15
2017-08-20T04:47:09.338Z,15
2017-08-20T04:48:19.320Z,15
2017-08-20T04:49:29.676Z,10
2017-08-20T04:50:39.674Z,10
2017-08-20T04:51:49.640Z,10
2017-08-20T04:52:59.928Z,10
2017-08-20T04:54:10.200Z,10
2017-08-20T04:55:20.521Z,10
2017-08-20T04:56:30.778Z,10
2017-08-20T04:57:41.067Z,10
2017-08-20T04:58:51.354Z,10
2017-08-20T05:00:01.623Z,5
2017-08-20T05:01:11.954Z,5
2017-08-20T05:02:24.371Z,5
2017-08-20T05:03:35.759Z,10
2017-08-20T05:04:45.721Z,10
2017-08-20T05:05:55.998Z,10
2017-08-20T05:07:05.950Z,10
2017-08-20T05:08:16.215Z,10
2017-08-20T05:09:26.489Z,15
2017-08-20T05:10:36.789Z,15
2017-08-20T05:11:47.057Z,15
2017-08-20T05:12:57.086Z,15
2017-08-20T05:14:07.064Z,15
2017-08-20T05:15:17.351Z,15
2017-08-20T05:16:27.646Z,15
2017-08-20T05:17:37.631Z,20
2017-08-20T05:18:47.646Z,20
2017-08-20T05:19:57.913Z,20
2017-08-20T05:21:08.193Z,25
2017-08-20T05:22:18.459Z,25
2017-08-20T05:23:28.731Z,30
2017-08-20T05:24:39.046Z,35
2017-08-20T05:25:49.048Z,35
2017-08-20T05:26:59.317Z,40
2017-08-20T05:28:09.592Z,40
2017-08-20T05:29:19.898Z,40
2017-08-20T05:30:30.240Z,40
2017-08-20T05:31:40.517Z,40
2017-08-20T05:32:50.803Z,45
2017-08-20T05:34:00.775Z,45
2017-08-20T05:35:11.067Z,45
2017-08-20T05:36:21.419Z,45
2017-08-20T05:37:31.699Z,45
2017-08-20T05:38:44.143Z,50
2017-08-20T05:39:54.414Z,50
2017-08-20T05:41:04.698Z,50
2017-08-20T05:42:15.043Z,55
2017-08-20T05:43:25.348Z,60
2017-08-20T05:44:35.337Z,65
2017-08-20T05:45:45.623Z,75
2017-08-20T05:46:55.599Z,75
2017-08-20T05:48:05.610Z,80
2017-08-20T05:49:15.274Z,85
2017-08-20T05:50:28.965Z,90
2017-08-20T05:51:38.942Z,95
2017-08-20T05:52:49.223Z,85
2017-08-20T05:53:58.595Z,85
2017-08-20T05:55:08.888Z,85
2017-08-20T05:56:19.173Z,80
2017-08-20T05:57:30.192Z,80
2017-08-20T05:58:40.477Z,80
2017-08-20T05:59:50.506Z,80
2017-08-20T06:01:00.790Z,75
2017-08-20T06:02:11.069Z,75
2017-08-20T06:03:21.349Z,75
2017-08-20T06:04:31.626Z,75
2017-08-20T06:05:41.891Z,75
2017-08-20T06:06:54.459Z,75
2017-08-20T06:08:04.116Z,75
2017-08-20T06:09:14.117Z,75
2017-08-20T06:10:24.397Z,80
2017-08-20T06:11:34.371Z,80
2017-08-20T06:12:44.657Z,80
2017-08-20T06:13:54.926Z,80
2017-08-20T06:15:04.904Z,80
2017-08-20T06:16:14.883Z,75
2017-08-20T06:17:25.204Z,75
2017-08-20T06:18:35.493Z,70
2017-08-20T06:19:45.776Z,70
2017-08-20T06:20:56.061Z,65
2017-08-20T06:22:06.038Z,65
2017-08-20T06:23:16.071Z,65
2017-08-20T06:24:26.349Z,60
2017-08-20T06:25:36.638Z,60
2017-08-20T06:26:46.615Z,60
2017-08-20T06:27:56.926Z,55
2017-08-20T06:29:06.898Z,55
2017-08-20T06:30:16.869Z,55
2017-08-20T06:31:27.158Z,55
2017-08-20T06:32:37.461Z,60
2017-08-20T06:33:47.425Z,60
2017-08-20T06:34:57.150Z,60
2017-08-20T06:36:07.425Z,60
2017-08-20T06:37:17.691Z,65
2017-08-20T06:38:27.986Z,65
2017-08-20T06:39:38.292Z,70
2017-08-20T06:40:48.274Z,70
2017-08-20T06:41:59.052Z,70
2017-08-20T06:43:09.332Z,75
2017-08-20T06:44:19.298Z,75
2017-08-20T06:45:29.271Z,75
2017-08-20T06:46:39.555Z,75
2017-08-20T06:47:49.534Z,80
2017-08-20T06:48:59.824Z,80
2017-08-20T06:50:09.838Z,75
2017-08-20T06:51:20.115Z,75
2017-08-20T06:52:30.472Z,75
2017-08-20T06:53:40.760Z,75
2017-08-20T06:54:51.086Z,80
2017-08-20T06:56:03.084Z,80
2017-08-20T06:57:13.369Z,80
2017-08-20T06:58:23.647Z,80
2017-08-20T06:59:33.927Z,85
2017-08-20T07:00:44.202Z,80
2017-08-20T07:01:54.177Z,85
2017-08-20T07:03:04.464Z,85
2017-08-20T07:04:14.496Z,85
2017-08-20T07:05:24.779Z,85
2017-08-20T07:06:35.071Z,85
2017-08-20T07:07:45.041Z,90
2017-08-20T07:08:55.027Z,90
2017-08-20T07:10:05.020Z,90
2017-08-20T07:11:15.012Z,95
2017-08-20T07:12:25.290Z,100
2017-08-20T07:13:35.242Z,100
2017-08-20T07:14:45.211Z,105
2017-08-20T07:15:57.344Z,105
2017-08-20T07:17:07.615Z,110
2017-08-20T07:18:17.609Z,110
2017-08-20T07:19:27.888Z,115
2017-08-20T07:20:38.167Z,115
2017-08-20T07:21:48.438Z,120
2017-08-20T07:22:58.404Z,120
2017-08-20T07:24:08.107Z,120
2017-08-20T07:25:18.100Z,125
2017-08-20T07:26:28.408Z,125
2017-08-20T07:27:38.437Z,130
2017-08-20T07:28:48.429Z,130
2017-08-20T07:29:58.724Z,130
2017-08-20T07:31:09.007Z,130
2017-08-20T07:32:18.984Z,130
2017-08-20T07:33:29.327Z,125
2017-08-20T07:34:39.610Z,120
2017-08-20T07:35:49.889Z,115
2017-08-20T07:36:59.880Z,115
2017-08-20T07:38:10.174Z,115
2017-08-20T07:39:20.510Z,110
2017-08-20T07:40:30.501Z,110
2017-08-20T07:41:40.803Z,110
2017-08-20T07:42:51.086Z,110
2017-08-20T07:44:01.375Z,110
2017-08-20T07:45:11.709Z,110
2017-08-20T07:46:21.988Z,110
2017-08-20T07:47:32.281Z,110
2017-08-20T07:48:42.561Z,115
2017-08-20T07:49:53.053Z,115
2017-08-20T07:51:02.771Z,120
2017-08-20T07:52:13.061Z,125
2017-08-20T07:53:23.340Z,125
2017-08-20T07:54:33.617Z,130
2017-08-20T07:55:43.362Z,135
2017-08-20T07:56:53.322Z,145
2017-08-20T07:58:03.610Z,145
2017-08-20T07:59:13.890Z,145
2017-08-20T08:00:24.166Z,155
2017-08-20T08:01:34.468Z,160
2017-08-20T08:02:44.780Z,160
2017-08-20T08:03:56.088Z,165
2017-08-20T08:05:06.060Z,170
2017-08-20T08:06:16.361Z,175
2017-08-20T08:07:26.316Z,180
2017-08-20T08:08:36.363Z,180
2017-08-20T08:09:46.630Z,185
2017-08-20T08:10:56.926Z,190
2017-08-20T08:12:06.889Z,195
2017-08-20T08:13:16.867Z,200
2017-08-20T08:14:27.148Z,205
2017-08-20T08:15:37.449Z,215
2017-08-20T08:16:47.742Z,215
2017-08-20T08:17:58.098Z,215
2017-08-20T08:19:08.455Z,220
2017-08-20T08:20:18.855Z,220
2017-08-20T08:21:29.209Z,220
2017-08-20T08:22:41.525Z,220
2017-08-20T08:23:53.061Z,220
2017-08-20T08:25:03.398Z,220
2017-08-20T08:26:13.511Z,220
2017-08-20T08:27:23.912Z,225
2017-08-20T08:28:33.940Z,225
2017-08-20T08:29:44.287Z,220
2017-08-20T08:30:54.323Z,220
2017-08-20T08:32:04.733Z,220
2017-08-20T08:33:15.103Z,215
2017-08-20T08:34:25.458Z,215
2017-08-20T08:35:35.860Z,220
2017-08-20T08:36:46.217Z,220
2017-08-20T08:37:56.303Z,220
2017-08-20T08:39:06.350Z,220
2017-08-20T08:40:16.376Z,220
2017-08-20T08:41:27.874Z,220
2017-08-20T08:42:37.899Z,220
2017-08-20T08:43:48.532Z,215
2017-08-20T08:44:58.578Z,215
2017-08-20T08:46:08.920Z,220
2017-08-20T08:47:19.284Z,215
2017-08-20T08:48:29.005Z,215
2017-08-20T08:49:39.089Z,215
2017-08-20T08:50:49.478Z,210
2017-08-20T08:51:59.815Z,210
2017-08-20T08:53:09.874Z,210
2017-08-20T08:54:20.218Z,205
2017-08-20T08:55:31.753Z,205
2017-08-20T08:56:42.096Z,205
2017-08-20T08:57:52.446Z,210
2017-08-20T08:59:02.780Z,210
2017-08-20T09:00:13.146Z,210
2017-08-20T09:01:23.551Z,210
2017-08-20T09:02:33.895Z,215
2017-08-20T09:03:43.947Z,220
2017-08-20T09:04:53.989Z,225
2017-08-20T09:06:06.540Z,230
2017-08-20T09:07:16.628Z,235
2017-08-20T09:08:26.982Z,235
2017-08-20T09:09:36.803Z,240
2017-08-20T09:10:47.227Z,245
2017-08-20T09:11:59.464Z,245
2017-08-20T09:13:09.620Z,245
2017-08-20T09:14:20.015Z,250
2017-08-20T09:15:30.355Z,255
2017-08-20T09:16:40.706Z,265
2017-08-20T09:17:51.059Z,280
2017-08-20T09:19:02.606Z,260
2017-08-20T09:20:12.647Z,260
2017-08-20T09:21:23.005Z,260
2017-08-20T09:22:33.377Z,260
2017-08-20T09:23:43.786Z,260
2017-08-20T09:24:54.205Z,270
2017-08-20T09:26:06.177Z,265
2017-08-20T09:27:16.576Z,260
2017-08-20T09:28:27.073Z,255
2017-08-20T09:29:37.462Z,255
2017-08-20T09:30:50.569Z,250
2017-08-20T09:32:00.920Z,245
2017-08-20T09:33:11.282Z,245
2017-08-20T09:34:21.753Z,260
2017-08-20T09:35:32.247Z,290
2017-08-20T09:36:42.658Z,270
2017-08-20T09:37:53.010Z,245
2017-08-20T09:39:03.374Z,220
2017-08-20T09:40:13.123Z,210
2017-08-20T09:41:23.983Z,205
2017-08-20T09:42:34.486Z,200
2017-08-20T09:43:44.945Z,230
2017-08-20T09:44:55.319Z,225
2017-08-20T09:46:06.015Z,235
2017-08-20T09:47:16.375Z,285
2017-08-20T09:48:27.478Z,230
2017-08-20T09:49:39.418Z,205
2017-08-20T09:50:49.894Z,205
2017-08-20T09:52:00.270Z,200
2017-08-20T09:53:10.636Z,210
2017-08-20T09:54:21.056Z,200
2017-08-20T09:55:31.417Z,195
2017-08-20T09:56:41.471Z,205
2017-08-20T09:57:51.840Z,200
2017-08-20T09:59:02.260Z,210
2017-08-20T10:00:12.670Z,195
2017-08-20T10:01:22.714Z,230
2017-08-20T10:02:33.104Z,205
2017-08-20T10:03:43.496Z,260
2017-08-20T10:04:53.856Z,230
2017-08-20T10:06:03.956Z,205
2017-08-20T10:07:14.442Z,195
2017-08-20T10:08:24.890Z,190
2017-08-20T10:09:37.066Z,190
2017-08-20T10:10:47.483Z,190
2017-08-20T10:11:57.882Z,195
2017-08-20T10:13:08.255Z,195
2017-08-20T10:14:18.600Z,290
2017-08-20T10:15:31.431Z,200
2017-08-20T10:16:44.141Z,190
2017-08-20T10:17:54.363Z,270
2017-08-20T10:19:04.806Z,270
2017-08-20T10:20:14.856Z,270
2017-08-20T10:21:24.586Z,275
2017-08-20T10:22:34.936Z,275
2017-08-20T10:23:45.429Z,280
2017-08-20T10:24:55.819Z,280
2017-08-20T10:26:06.205Z,275
2017-08-20T10:27:16.237Z,285
2017-08-20T10:28:28.237Z,195
2017-08-20T10:29:38.719Z,195
2017-08-20T10:30:50.463Z,195
2017-08-20T10:32:02.877Z,205
2017-08-20T10:33:12.926Z,220
2017-08-20T10:34:22.979Z,220
2017-08-20T10:35:33.444Z,215
2017-08-20T10:36:43.880Z,250
2017-08-20T10:37:54.268Z,275
2017-08-20T10:39:04.645Z,235
2017-08-20T10:40:14.706Z,235
2017-08-20T10:41:25.123Z,205
2017-08-20T10:42:35.506Z,215
2017-08-20T10:43:45.974Z,210
2017-08-20T10:44:56.406Z,245
2017-08-20T10:46:06.517Z,280
2017-08-20T10:47:16.680Z,270
2017-08-20T10:48:27.030Z,205
2017-08-20T10:49:37.391Z,245
2017-08-20T10:50:47.779Z,245
2017-08-20T10:51:58.164Z,235
2017-08-20T10:53:08.397Z,255
2017-08-20T10:54:23.023Z,255
2017-08-20T10:55:33.420Z,245
2017-08-20T10:56:43.587Z,255
2017-08-20T10:57:53.960Z,265
2017-08-20T10:59:04.365Z,270
2017-08-20T11:00:14.699Z,290
2017-08-20T11:01:25.062Z,290
2017-08-20T11:02:35.421Z,185
2017-08-20T11:03:45.171Z,205
2017-08-20T11:04:56.656Z,290
2017-08-20T11:06:07.041Z,290
2017-08-20T11:07:17.567Z,285
2017-08-20T11:08:27.945Z,180
2017-08-20T11:09:42.463Z,305
2017-08-20T11:10:53.728Z,290
2017-08-20T11:12:04.285Z,185
2017-08-20T11:13:18.046Z,185
2017-08-20T11:14:32.130Z,200
2017-08-20T11:15:42.532Z,200
2017-08-20T11:16:52.274Z,205
2017-08-20T11:18:02.631Z,205
2017-08-20T11:19:12.978Z,235
2017-08-20T11:20:23.344Z,310
2017-08-20T11:21:33.762Z,300
2017-08-20T11:22:44.117Z,330
2017-08-20T11:23:53.878Z,255
2017-08-20T11:25:03.937Z,330
2017-08-20T11:26:13.672Z,225
2017-08-20T11:27:23.454Z,200
2017-08-20T11:28:33.513Z,195
2017-08-20T11:29:45.413Z,190
2017-08-20T11:30:55.463Z,180
2017-08-20T11:32:06.568Z,185
2017-08-20T11:33:16.973Z,250
2017-08-20T11:34:42.168Z,170
2017-08-20T11:35:56.044Z,175
2017-08-20T11:37:08.740Z,300
2017-08-20T11:38:20.780Z,185
2017-08-20T11:39:30.957Z,325
2017-08-20T11:40:41.176Z,325
2017-08-20T11:41:51.571Z,275
2017-08-20T11:43:01.932Z,190
2017-08-20T11:44:12.821Z,300
2017-08-20T11:45:23.227Z,190
2017-08-20T11:46:33.624Z,190
2017-08-20T11:47:44.062Z,320
2017-08-20T11:48:54.484Z,215
2017-08-20T11:50:04.638Z,180
2017-08-20T11:51:15.049Z,180
2017-08-20T11:52:25.589Z,285
2017-08-20T11:53:35.441Z,275
2017-08-20T11:54:45.971Z,145
2017-08-20T11:55:56.557Z,280
2017-08-20T11:57:07.032Z,250
2017-08-20T11:58:17.539Z,150
2017-08-20T11:59:30.167Z,290
2017-08-20T12:00:44.340Z,285
2017-08-20T12:01:55.019Z,275
2017-08-20T12:03:05.427Z,270
2017-08-20T12:04:15.947Z,270
2017-08-20T12:05:27.066Z,140
2017-08-20T12:06:37.430Z,210
2017-08-20T12:07:51.565Z,270
2017-08-20T12:09:01.972Z,275
2017-08-20T12:10:12.166Z,280
2017-08-20T12:11:22.555Z,160
2017-08-20T12:12:32.742Z,280
2017-08-20T12:13:42.944Z,290
2017-08-20T12:14:53.443Z,240
2017-08-20T12:16:03.996Z,170
2017-08-20T12:17:14.640Z,280
2017-08-20T12:18:25.227Z,145
2017-08-20T12:19:35.353Z,135
2017-08-20T12:20:45.505Z,135
2017-08-20T12:21:55.562Z,130
2017-08-20T12:23:05.959Z,120
2017-08-20T12:24:16.366Z,120
2017-08-20T12:25:26.878Z,125
2017-08-20T12:26:37.302Z,135
2017-08-20T12:27:48.193Z,140
2017-08-20T12:28:57.940Z,260
2017-08-20T12:30:08.340Z,265
2017-08-20T12:31:18.996Z,270
2017-08-20T12:32:29.344Z,275
2017-08-20T12:33:39.886Z,280
2017-08-20T12:34:50.050Z,285
2017-08-20T12:36:00.111Z,285
2017-08-20T12:37:10.609Z,295
2017-08-20T12:38:21.581Z,305
2017-08-20T12:39:32.025Z,310
2017-08-20T12:40:41.875Z,220
2017-08-20T12:41:52.511Z,270
2017-08-20T12:43:03.232Z,285
2017-08-20T12:44:13.889Z,260
2017-08-20T12:45:24.361Z,270
2017-08-20T12:46:39.649Z,260
2017-08-20T12:47:50.006Z,255
2017-08-20T12:49:00.525Z,245
2017-08-20T12:50:10.965Z,250
2017-08-20T12:51:21.026Z,245
2017-08-20T12:52:31.398Z,245
2017-08-20T12:53:41.809Z,245
2017-08-20T12:54:52.384Z,245
2017-08-20T12:56:02.447Z,125
2017-08-20T12:57:12.829Z,115
2017-08-20T12:58:23.207Z,115
2017-08-20T12:59:47.033Z,125
2017-08-20T13:00:58.870Z,130
2017-08-20T13:02:08.919Z,140
2017-08-20T13:03:19.008Z,150
2017-08-20T13:04:29.421Z,275
2017-08-20T13:05:39.848Z,275
2017-08-20T13:06:50.220Z,270
2017-08-20T13:08:00.587Z,265
2017-08-20T13:09:11.173Z,260
2017-08-20T13:10:21.738Z,240
2017-08-20T13:11:31.868Z,255
2017-08-20T13:12:42.236Z,255
2017-08-20T13:13:52.297Z,220
2017-08-20T13:15:02.656Z,265
2017-08-20T13:16:13.074Z,165
2017-08-20T13:17:23.521Z,285
2017-08-20T13:18:33.602Z,285
2017-08-20T13:19:43.939Z,285
2017-08-20T13:20:54.303Z,280
2017-08-20T13:22:04.694Z,275
2017-08-20T13:23:14.468Z,265
2017-08-20T13:24:24.845Z,260
2017-08-20T13:25:37.504Z,255
2017-08-20T13:26:46.927Z,245
2017-08-20T13:27:57.289Z,240
2017-08-20T13:29:07.689Z,235
2017-08-20T13:30:17.756Z,230
2017-08-20T13:31:27.821Z,230
2017-08-20T13:32:38.180Z,110
2017-08-20T13:33:48.598Z,190
2017-08-20T13:34:58.701Z,115
2017-08-20T13:36:09.102Z,110
2017-08-20T13:37:19.454Z,110
2017-08-20T13:38:29.833Z,220
2017-08-20T13:39:40.245Z,220
2017-08-20T13:40:50.672Z,120
2017-08-20T13:42:00.773Z,115
2017-08-20T13:43:11.128Z,115
2017-08-20T13:44:21.177Z,205
2017-08-20T13:45:33.480Z,130
2017-08-20T13:46:43.883Z,210
2017-08-20T13:47:54.333Z,105
2017-08-20T13:49:04.705Z,210
2017-08-20T13:50:15.118Z,215
2017-08-20T13:51:25.211Z,205
2017-08-20T13:52:35.639Z,110
2017-08-20T13:53:46.044Z,110
2017-08-20T13:54:56.801Z,110
2017-08-20T13:56:07.159Z,110
2017-08-20T13:57:17.557Z,110
2017-08-20T13:58:27.656Z,105
2017-08-20T13:59:37.700Z,105
2017-08-20T14:00:48.054Z,205
2017-08-20T14:01:58.112Z,175
2017-08-20T14:03:11.650Z,200
2017-08-20T14:04:22.086Z,200
2017-08-20T14:05:32.172Z,95
2017-08-20T14:06:42.576Z,95
2017-08-20T14:07:52.977Z,90
2017-08-20T14:09:03.331Z,90
2017-08-20T14:10:13.177Z,90
2017-08-20T14:11:23.217Z,90
2017-08-20T14:12:33.586Z,85
2017-08-20T14:13:43.949Z,85
2017-08-20T14:14:54.385Z,85
2017-08-20T14:16:04.828Z,85
2017-08-20T14:17:15.178Z,85
2017-08-20T14:18:25.617Z,85
2017-08-20T14:19:35.670Z,90
2017-08-20T14:20:47.148Z,85
2017-08-20T14:21:57.561Z,85
2017-08-20T14:23:07.619Z,90
2017-08-20T14:24:17.661Z,90
2017-08-20T14:25:28.027Z,95
2017-08-20T14:26:38.399Z,100
2017-08-20T14:27:49.791Z,105
2017-08-20T14:29:00.154Z,110
2017-08-20T14:30:10.209Z,110
2017-08-20T14:31:20.287Z,110
2017-08-20T14:32:30.660Z,105
2017-08-20T14:33:41.078Z,110
2017-08-20T14:34:50.833Z,115
2017-08-20T14:36:01.207Z,125
2017-08-20T14:37:11.565Z,130
2017-08-20T14:38:21.933Z,135
2017-08-20T14:39:32.037Z,135
2017-08-20T14:40:42.435Z,140
2017-08-20T14:41:52.799Z,140
2017-08-20T14:43:03.162Z,145
2017-08-20T14:44:13.546Z,160
2017-08-20T14:45:23.985Z,145
2017-08-20T14:46:34.385Z,130
2017-08-20T14:47:47.257Z,120
2017-08-20T14:48:57.328Z,115
2017-08-20T14:50:07.439Z,115
2017-08-20T14:51:17.868Z,115
2017-08-20T14:52:27.909Z,180
2017-08-20T14:53:38.301Z,180
2017-08-20T14:54:48.678Z,175
2017-08-20T14:55:59.059Z,180
2017-08-20T14:57:09.473Z,120
2017-08-20T14:58:19.855Z,120
2017-08-20T14:59:30.251Z,120
2017-08-20T15:00:40.317Z,120
2017-08-20T15:01:50.690Z,115
2017-08-20T15:03:00.790Z,115
2017-08-20T15:04:10.842Z,120
2017-08-20T15:05:21.205Z,180
2017-08-20T15:06:31.781Z,120
2017-08-20T15:07:41.848Z,115
2017-08-20T15:08:53.532Z,115
2017-08-20T15:10:03.586Z,115
2017-08-20T15:11:13.977Z,120
2017-08-20T15:12:24.031Z,125
2017-08-20T15:13:34.391Z,120
2017-08-20T15:14:44.845Z,120
2017-08-20T15:15:54.917Z,160
2017-08-20T15:17:05.294Z,110
2017-08-20T15:18:15.676Z,105
2017-08-20T15:19:25.745Z,100
2017-08-20T15:20:36.176Z,105
2017-08-20T15:21:46.618Z,110
2017-08-20T15:22:57.128Z,115
2017-08-20T15:24:07.502Z,115
2017-08-20T15:25:17.566Z,115
2017-08-20T15:26:27.987Z,115
2017-08-20T15:27:38.352Z,115
2017-08-20T15:28:48.735Z,115
2017-08-20T15:29:58.772Z,115
2017-08-20T15:31:09.156Z,115
2017-08-20T15:32:19.591Z,120
2017-08-20T15:33:29.946Z,120
2017-08-20T15:34:40.315Z,120
2017-08-20T15:36:09.908Z,120
2017-08-20T15:37:20.308Z,120
2017-08-20T15:38:30.677Z,115
2017-08-20T15:39:40.751Z,105
2017-08-20T15:40:50.794Z,105
2017-08-20T15:42:00.555Z,100
2017-08-20T15:43:10.962Z,125
2017-08-20T15:44:21.331Z,135
2017-08-20T15:45:31.710Z,140
2017-08-20T15:46:42.077Z,140
2017-08-20T15:47:52.114Z,140
2017-08-20T15:49:02.541Z,135
2017-08-20T15:50:12.930Z,130
2017-08-20T15:51:23.309Z,135
2017-08-20T15:52:33.368Z,130
2017-08-20T15:53:43.732Z,125
2017-08-20T15:54:54.154Z,125
2017-08-20T15:56:04.207Z,120
2017-08-20T15:57:14.584Z,85
2017-08-20T15:58:24.648Z,80
2017-08-20T15:59:35.002Z,85
2017-08-20T16:00:45.176Z,80
2017-08-20T16:01:55.570Z,80
2017-08-20T16:03:05.953Z,80
2017-08-20T16:04:16.353Z,80
2017-08-20T16:05:26.397Z,95
2017-08-20T16:06:36.806Z,115
2017-08-20T16:07:46.905Z,110
2017-08-20T16:08:57.270Z,95
2017-08-20T16:10:07.629Z,90
2017-08-20T16:11:17.957Z,90
2017-08-20T16:12:28.394Z,95
2017-08-20T16:13:38.503Z,95
2017-08-20T16:14:49.216Z,95
2017-08-20T16:15:59.625Z,90
2017-08-20T16:17:09.995Z,90
2017-08-20T16:18:20.415Z,90
2017-08-20T16:19:30.773Z,90
2017-08-20T16:20:43.192Z,85
2017-08-20T16:21:53.260Z,85
2017-08-20T16:23:03.307Z,85
2017-08-20T16:24:13.722Z,75
2017-08-20T16:25:24.117Z,75
2017-08-20T16:26:34.191Z,75
2017-08-20T16:27:44.574Z,75
2017-08-20T16:28:54.927Z,70
2017-08-20T16:30:05.039Z,70
2017-08-20T16:31:15.409Z,70
2017-08-20T16:32:25.463Z,65
2017-08-20T16:33:35.200Z,65
2017-08-20T16:34:45.608Z,65
2017-08-20T16:35:55.718Z,65
2017-08-20T16:37:06.094Z,60
2017-08-20T16:38:16.467Z,60
2017-08-20T16:39:26.520Z,60
2017-08-20T16:40:36.900Z,60
2017-08-20T16:41:47.329Z,50
2017-08-20T16:42:57.717Z,55
2017-08-20T16:44:09.225Z,55
2017-08-20T16:45:19.287Z,55
2017-08-20T16:46:29.653Z,55
2017-08-20T16:47:40.069Z,55
2017-08-20T16:48:50.460Z,55
2017-08-20T16:50:06.101Z,55
2017-08-20T16:51:17.827Z,55
2017-08-20T16:52:28.220Z,45
2017-08-20T16:53:39.036Z,45
2017-08-20T16:54:49.402Z,45
2017-08-20T16:55:59.777Z,45
2017-08-20T16:57:10.142Z,40
2017-08-20T16:58:19.884Z,40
2017-08-20T16:59:30.307Z,40
2017-08-20T17:00:40.684Z,40
2017-08-20T17:01:51.094Z,40
2017-08-20T17:03:01.484Z,40
2017-08-20T17:04:11.844Z,40
2017-08-20T17:05:21.961Z,40
2017-08-20T17:06:32.364Z,35